Airfield :
LOGIN :

Register | Disclaimer

   EN    FR    IT 

 










Legend :    VFR   Marginal VFR   IFR   Intensive IFR   Very Intensive IFR
Visi :
Ceiling :
>= 8 km
>= 3000ft
5 to 8 km
1000 to 3000 ft
1500m to 5 km
500 to 1000 ft
800 to 1500m
200 to 500 ft
< 800m
< 200 ft
Symbols :   Thunderstorms  Fog  Heavy snow  Heavy precipitations  Wind > 20 kt
SIGMETs :     Misc.  Thunderstorms  Icing  Turbulence  Mountain Waves  Volcanic Ashes







- Airport Elevation : 3 ft
- IATA code : LWR


EHLW - Leuuwarden Air Base

CURRENT METAR :
  • 260825Z AUTO 24014KT 210V270 9999 BKN025 OVC030 17/12 Q1010 BLU

EXPIRED METARs :
  • 260759Z AUTO 24014KT 210V280 9999 BKN025 BKN028 OVC032 16/12 Q1010 BLU
  • 260755Z AUTO 24014KT 210V280 9999 OVC024 16/12 Q1010 WHT
  • 260725Z AUTO 24013KT 210V280 9999 OVC023 16/12 Q1011 WHT
  • 260659Z AUTO 24012KT 190V270 9999 OVC025 15/12 Q1011 BLU
  • 260655Z AUTO 23011KT 190V270 9999 OVC024 15/13 Q1011 WHT
  • 260625Z AUTO 23010KT 200V260 9999 OVC021 15/12 Q1011 WHT
  • 260605Z AUTO 23009KT 200V260 9999 OVC022 14/12 Q1011 WHT
  • 260555Z AUTO 23011KT 9999 OVC020 14/12 Q1011 WHT
  • 260551Z AUTO 23010KT 5000 BR OVC020 14/13 Q1011 WHT

TAF TAF EHLW
Valid from the 26 at 05:00 until the 26 at 17:00 UTC


260358Z 2605/2617 25010KT 9999 SCT022 BKN028
PROB30 2605/2608 SCT012 BKN018
TEMPO 2612/2617 25015G25KT
BECMG 2616/2617 4500 -RA -SHRA SCT018 FEW022CB BKN028
No reported NOTAMs for that airfield.



MET'MAP, your aeronautical weather chart ! - Copyright ORBIFLY December 2007 - Disclaimer

ORBIFLY MET'MAP TEAM :

Programming & Development : Alexandra Zaïnal
Concept & Development : Baudouin d'Aumeries
Co-Development & Prog : Marc-Olivier Méhu
Technical & hardware support : Manuel Goepfert

Contact : metmap@orbifly.com




SOURCES & CREDITS :

   NOAA